Terminal Aerodrome Forecast
Issued by NWS Brownsville, TX

Home | Current Version | Previous Version | Text Only | Print | Product List | Glossary On
Versions: 1 2 3 4 5 6 7 8 9 10 11 12 13 14 15
000
FTUS44 KBRO 271740
TAFHRL
TAF
KHRL 271740Z 2718/2818 33014G22KT P6SM FEW030 BKN250
     FM272100 01014KT P6SM SCT035
     FM280200 35006KT P6SM BKN250
     FM280900 30004KT 5SM BR FEW015 BKN250
     FM281400 33012G25KT P6SM SCT250=

USA.gov is the U.S. government's official web portal to all federal, state and local government web resources and services.